Portada
METAR-TAF:

METAR-TAF

Aeroports :

N'Djamena, Txad

latitud: 12-08N, longitud: 015-02E, altitud: 295 m

Observació

L'informe es va fer fa 30 minuts, a les 18:00 UTC
Vent 4 kt del Nord
Temperatura 37°C
Humitat 14%
Pressió 1004 hPa
Visibilitat: 4000 m
Pols estès

METAR: FTTJ 291800Z 35004KT 4000 DU NSC 37/05 Q1004 NOSIG

Hora: 19:30 (18:30 UTC)

Pronòstic

L'informe es va fer fa 1 hora i 30 minuts, a les 17:00 UTC
Pronòstic vàlid del 29 a les 18 UTC al 30 a les 24 UTC
Vent 10 kt del Nord
Visibilitat: 6000 m
Temporalment
l' 29 a les 18 UTC al 29 a les 21 UTC
Visibilitat: 4000 m
calitja
Temporalment
l' 30 a les 17 UTC al 30 a les 20 UTC
Visibilitat: 4000 m
calitja

TAF: FTTJ 291700Z 2918/3024 01010KT 6000 NSC TEMPO 2918/2921 4000 HZ TEMPO 3017/3020 4000 HZ

Observacions i pronòstics meteorològics de més de 4000 aeroports (METAR i TAF).

Les estacions disponibles són els punts grocs i vermells al mapa.

Posi el ratolí al punt desitjat per veure el nom de l'estació.

Feu clic per veure les observacions i els pronòstics meteorològics.

Per canviar el mapa: feu clic els botons verds amb una creu de color negre per apropar; al botó verd amb un guió per allunyar la imatge; o en les fletxes verdes per a mapes adjacents.


METAR-TAF: